Aérodrome :
LOGIN :

S'inscrire | Disclaimer

   EN    FR    IT 

 










Légende :    VFR   VFR Marginal   IFR   IFR Intensif   IFR Très Intensif
Visi : 
Plafond : 
>= 8 km
>= 3000ft
5 à 8 km
1000 à 3000 ft
1500m à 5 km
500 à 1000 ft
800 à 1500m
200 à 500 ft
< 800m
< 200 ft
Symboles :   Orages  Brouillard  Fortes neiges  Fortes précipitations  Vent > 20 kt
SIGMETs :   Divers  Orages  Givrage  Turbulence  Onde Orograph.  Cendres Volcan.






- Altitude de l'aérodrome : 75 ft
- Code IATA : MRH


EGYM - RAF Marham

DERNIER METAR :
  • 211850Z 10009KT 5000 HZ OVC007 05/04 Q1002 GRN

METARs EXPIRÉS :
  • 211820Z 11008KT 5000 HZ OVC010 05/04 Q1002 NOSIG RMK GRN GRN
  • 211750Z 10008KT 5000 HZ OVC010 05/03 Q1002 NOSIG RMK GRN GRN
  • 211720Z 10011KT 6000 HZ OVC011 05/03 Q1002 NOSIG RMK GRN GRN
  • 211650Z 11010KT 6000 HZ OVC012 05/03 Q1003 NOSIG RMK GRN GRN
  • 211620Z 10009KT 7000 HZ OVC013 05/03 Q1003 GRN NOSIG RMK GRN GRN

TAF TAF EGYM
Valide du 21 à 18h jusqu'au 22 à 00h UTC


211638Z 2118/2124 11010KT 9999 BKN014
TEMPO 2118/2123 4000 HZ BKN006
PROB30
TEMPO 2120/2123 SCT004



MET'MAP, la Météo Aéronautique d'un coup d'oeil ! - Copyright ORBIFLY Décembre 2007 - Disclaimer

ORBIFLY MET'MAP TEAM :

Programmation & Développement : Alexandra Zaïnal
Conception & Développement : Baudouin d'Aumeries
Co-Programmation & Développement : Marc-Olivier Méhu
Soutien technique & logistique : Manuel Goepfert

Contact : metmap@orbifly.com




SOURCES & CREDITS :

   NOAA